sensor_id;sensor_type;location;lat;lon;timestamp;P1;durP1;ratioP1;P2;durP2;ratioP2
69795;SDS011;57073;45.650;9.612;2022-09-09T00:04:10;7.82;;;4.40;;
69795;SDS011;57073;45.650;9.612;2022-09-09T00:08:07;6.85;;;4.10;;
69795;SDS011;57073;45.650;9.612;2022-09-09T00:10:17;6.10;;;3.60;;
69795;SDS011;57073;45.650;9.612;2022-09-09T00:16:50;4.88;;;3.45;;
69795;SDS011;57073;45.650;9.612;2022-09-09T00:19:03;5.28;;;3.45;;
69795;SDS011;57073;45.650;9.612;2022-09-09T00:21:14;6.00;;;3.70;;
69795;SDS011;57073;45.650;9.612;2022-09-09T00:25:23;8.13;;;3.20;;
69795;SDS011;57073;45.650;9.612;2022-09-09T00:27:32;6.80;;;3.40;;
69795;SDS011;57073;45.650;9.612;2022-09-09T00:29:46;8.48;;;3.63;;
69795;SDS011;57073;45.650;9.612;2022-09-09T00:31:54;6.23;;;3.70;;
69795;SDS011;57073;45.650;9.612;2022-09-09T00:34:11;4.65;;;3.40;;
69795;SDS011;57073;45.650;9.612;2022-09-09T00:36:14;8.40;;;3.50;;
69795;SDS011;57073;45.650;9.612;2022-09-09T00:42:41;7.13;;;3.27;;
69795;SDS011;57073;45.650;9.612;2022-09-09T00:47:12;5.68;;;3.50;;
69795;SDS011;57073;45.650;9.612;2022-09-09T00:49:47;6.95;;;3.67;;
69795;SDS011;57073;45.650;9.612;2022-09-09T00:56:37;5.15;;;3.50;;
69795;SDS011;57073;45.650;9.612;2022-09-09T00:58:42;5.68;;;3.67;;
69795;SDS011;57073;45.650;9.612;2022-09-09T01:00:51;5.35;;;3.30;;
69795;SDS011;57073;45.650;9.612;2022-09-09T01:05:00;8.33;;;3.40;;
69795;SDS011;57073;45.650;9.612;2022-09-09T01:07:11;5.25;;;3.60;;
69795;SDS011;57073;45.650;9.612;2022-09-09T01:11:23;9.68;;;3.60;;
69795;SDS011;57073;45.650;9.612;2022-09-09T01:13:27;8.43;;;3.50;;
69795;SDS011;57073;45.650;9.612;2022-09-09T01:15:33;7.63;;;3.58;;
69795;SDS011;57073;45.650;9.612;2022-09-09T01:17:44;5.82;;;3.92;;
69795;SDS011;57073;45.650;9.612;2022-09-09T01:25:07;6.97;;;3.78;;
69795;SDS011;57073;45.650;9.612;2022-09-09T01:27:18;6.20;;;3.85;;
69795;SDS011;57073;45.650;9.612;2022-09-09T01:29:20;7.07;;;3.88;;
69795;SDS011;57073;45.650;9.612;2022-09-09T01:31:29;7.13;;;3.80;;
69795;SDS011;57073;45.650;9.612;2022-09-09T01:33:35;5.32;;;3.63;;
69795;SDS011;57073;45.650;9.612;2022-09-09T01:37:58;6.45;;;3.80;;
69795;SDS011;57073;45.650;9.612;2022-09-09T01:39:59;6.72;;;3.63;;
69795;SDS011;57073;45.650;9.612;2022-09-09T01:42:00;8.77;;;3.97;;
69795;SDS011;57073;45.650;9.612;2022-09-09T01:44:02;5.35;;;3.88;;
69795;SDS011;57073;45.650;9.612;2022-09-09T01:46:03;6.85;;;4.00;;
69795;SDS011;57073;45.650;9.612;2022-09-09T01:48:03;6.97;;;3.90;;
69795;SDS011;57073;45.650;9.612;2022-09-09T01:50:04;6.77;;;4.00;;
69795;SDS011;57073;45.650;9.612;2022-09-09T01:52:05;9.73;;;4.45;;
69795;SDS011;57073;45.650;9.612;2022-09-09T01:54:06;7.40;;;3.85;;
69795;SDS011;57073;45.650;9.612;2022-09-09T01:56:25;7.43;;;4.20;;
69795;SDS011;57073;45.650;9.612;2022-09-09T01:58:36;6.28;;;3.60;;
69795;SDS011;57073;45.650;9.612;2022-09-09T02:00:49;9.40;;;4.25;;
69795;SDS011;57073;45.650;9.612;2022-09-09T02:07:40;7.67;;;4.40;;
69795;SDS011;57073;45.650;9.612;2022-09-09T02:09:43;8.25;;;4.35;;
69795;SDS011;57073;45.650;9.612;2022-09-09T02:11:47;13.27;;;4.50;;
69795;SDS011;57073;45.650;9.612;2022-09-09T02:13:53;8.10;;;4.38;;
69795;SDS011;57073;45.650;9.612;2022-09-09T02:16:03;5.93;;;3.80;;
69795;SDS011;57073;45.650;9.612;2022-09-09T02:18:08;6.77;;;3.87;;
69795;SDS011;57073;45.650;9.612;2022-09-09T02:20:13;8.13;;;4.00;;
69795;SDS011;57073;45.650;9.612;2022-09-09T02:22:16;6.45;;;4.20;;
69795;SDS011;57073;45.650;9.612;2022-09-09T02:24:19;7.47;;;3.83;;
69795;SDS011;57073;45.650;9.612;2022-09-09T02:26:20;9.30;;;4.00;;
69795;SDS011;57073;45.650;9.612;2022-09-09T02:28:23;7.13;;;4.28;;
69795;SDS011;57073;45.650;9.612;2022-09-09T02:30:27;6.32;;;4.57;;
69795;SDS011;57073;45.650;9.612;2022-09-09T02:32:29;8.93;;;4.30;;
69795;SDS011;57073;45.650;9.612;2022-09-09T02:34:34;8.52;;;4.03;;
69795;SDS011;57073;45.650;9.612;2022-09-09T02:36:40;8.48;;;3.83;;
69795;SDS011;57073;45.650;9.612;2022-09-09T02:38:45;6.18;;;3.75;;
69795;SDS011;57073;45.650;9.612;2022-09-09T02:40:50;6.40;;;3.78;;
69795;SDS011;57073;45.650;9.612;2022-09-09T02:42:51;7.73;;;3.90;;
69795;SDS011;57073;45.650;9.612;2022-09-09T02:44:54;9.27;;;4.10;;
69795;SDS011;57073;45.650;9.612;2022-09-09T02:49:03;7.60;;;4.03;;
69795;SDS011;57073;45.650;9.612;2022-09-09T02:57:38;6.82;;;4.18;;
69795;SDS011;57073;45.650;9.612;2022-09-09T02:59:40;6.70;;;3.80;;
69795;SDS011;57073;45.650;9.612;2022-09-09T03:01:41;6.22;;;3.70;;
69795;SDS011;57073;45.650;9.612;2022-09-09T03:03:41;5.77;;;3.63;;
69795;SDS011;57073;45.650;9.612;2022-09-09T03:05:43;6.93;;;3.70;;
69795;SDS011;57073;45.650;9.612;2022-09-09T03:07:44;6.03;;;3.47;;
69795;SDS011;57073;45.650;9.612;2022-09-09T03:09:44;7.70;;;3.93;;
69795;SDS011;57073;45.650;9.612;2022-09-09T03:11:45;9.23;;;3.77;;
69795;SDS011;57073;45.650;9.612;2022-09-09T03:13:46;7.65;;;3.97;;
69795;SDS011;57073;45.650;9.612;2022-09-09T03:15:47;8.05;;;4.05;;
69795;SDS011;57073;45.650;9.612;2022-09-09T03:17:48;7.70;;;3.93;;
69795;SDS011;57073;45.650;9.612;2022-09-09T03:19:48;5.32;;;4.13;;
69795;SDS011;57073;45.650;9.612;2022-09-09T03:21:50;9.20;;;4.00;;
69795;SDS011;57073;45.650;9.612;2022-09-09T03:23:50;7.43;;;4.30;;
69795;SDS011;57073;45.650;9.612;2022-09-09T03:25:50;5.57;;;4.23;;
69795;SDS011;57073;45.650;9.612;2022-09-09T03:27:52;8.40;;;4.25;;
69795;SDS011;57073;45.650;9.612;2022-09-09T03:29:54;8.50;;;4.50;;
69795;SDS011;57073;45.650;9.612;2022-09-09T03:31:55;9.02;;;4.43;;
69795;SDS011;57073;45.650;9.612;2022-09-09T03:33:59;7.67;;;4.30;;
69795;SDS011;57073;45.650;9.612;2022-09-09T03:35:59;8.18;;;4.60;;
69795;SDS011;57073;45.650;9.612;2022-09-09T03:38:00;7.63;;;4.60;;
69795;SDS011;57073;45.650;9.612;2022-09-09T03:40:00;7.27;;;4.50;;
69795;SDS011;57073;45.650;9.612;2022-09-09T03:42:01;6.93;;;4.57;;
69795;SDS011;57073;45.650;9.612;2022-09-09T03:44:03;7.77;;;4.40;;
69795;SDS011;57073;45.650;9.612;2022-09-09T03:46:04;7.97;;;4.45;;
69795;SDS011;57073;45.650;9.612;2022-09-09T03:48:04;7.83;;;4.47;;
69795;SDS011;57073;45.650;9.612;2022-09-09T03:50:05;8.67;;;4.10;;
69795;SDS011;57073;45.650;9.612;2022-09-09T03:52:08;6.28;;;4.30;;
69795;SDS011;57073;45.650;9.612;2022-09-09T03:54:09;6.68;;;4.10;;
69795;SDS011;57073;45.650;9.612;2022-09-09T03:56:10;8.53;;;4.30;;
69795;SDS011;57073;45.650;9.612;2022-09-09T03:58:10;6.83;;;4.13;;
69795;SDS011;57073;45.650;9.612;2022-09-09T04:00:11;9.55;;;4.78;;
69795;SDS011;57073;45.650;9.612;2022-09-09T04:02:12;7.90;;;4.25;;
69795;SDS011;57073;45.650;9.612;2022-09-09T04:04:13;8.80;;;4.83;;
69795;SDS011;57073;45.650;9.612;2022-09-09T04:06:13;10.10;;;4.90;;
69795;SDS011;57073;45.650;9.612;2022-09-09T04:08:15;8.75;;;5.07;;
69795;SDS011;57073;45.650;9.612;2022-09-09T04:10:15;8.57;;;5.60;;
69795;SDS011;57073;45.650;9.612;2022-09-09T04:12:16;11.53;;;6.57;;
69795;SDS011;57073;45.650;9.612;2022-09-09T04:14:17;8.60;;;6.00;;
69795;SDS011;57073;45.650;9.612;2022-09-09T04:16:18;7.83;;;6.50;;
69795;SDS011;57073;45.650;9.612;2022-09-09T04:18:19;10.53;;;6.10;;
69795;SDS011;57073;45.650;9.612;2022-09-09T04:20:20;11.35;;;5.75;;
69795;SDS011;57073;45.650;9.612;2022-09-09T04:22:22;9.98;;;5.88;;
69795;SDS011;57073;45.650;9.612;2022-09-09T04:24:22;11.80;;;6.07;;
69795;SDS011;57073;45.650;9.612;2022-09-09T04:26:22;9.93;;;6.53;;
69795;SDS011;57073;45.650;9.612;2022-09-09T04:28:23;16.30;;;6.53;;
69795;SDS011;57073;45.650;9.612;2022-09-09T04:30:26;10.32;;;6.63;;
69795;SDS011;57073;45.650;9.612;2022-09-09T04:32:27;10.18;;;6.57;;
69795;SDS011;57073;45.650;9.612;2022-09-09T04:34:27;13.17;;;7.13;;
69795;SDS011;57073;45.650;9.612;2022-09-09T04:36:28;11.98;;;7.25;;
69795;SDS011;57073;45.650;9.612;2022-09-09T04:38:28;12.27;;;8.00;;
69795;SDS011;57073;45.650;9.612;2022-09-09T04:40:29;12.93;;;7.57;;
69795;SDS011;57073;45.650;9.612;2022-09-09T04:42:34;12.82;;;8.65;;
69795;SDS011;57073;45.650;9.612;2022-09-09T04:44:35;15.85;;;9.07;;
69795;SDS011;57073;45.650;9.612;2022-09-09T04:46:36;15.70;;;9.03;;
69795;SDS011;57073;45.650;9.612;2022-09-09T04:48:36;11.77;;;8.80;;
69795;SDS011;57073;45.650;9.612;2022-09-09T04:50:36;15.68;;;9.23;;
69795;SDS011;57073;45.650;9.612;2022-09-09T04:52:37;15.53;;;9.97;;
69795;SDS011;57073;45.650;9.612;2022-09-09T04:54:37;14.03;;;8.50;;
69795;SDS011;57073;45.650;9.612;2022-09-09T04:56:38;13.85;;;8.70;;
69795;SDS011;57073;45.650;9.612;2022-09-09T04:58:39;10.13;;;6.23;;
69795;SDS011;57073;45.650;9.612;2022-09-09T05:00:42;12.77;;;7.40;;
69795;SDS011;57073;45.650;9.612;2022-09-09T05:02:43;4.73;;;2.20;;
69795;SDS011;57073;45.650;9.612;2022-09-09T05:04:43;1.73;;;0.70;;
69795;SDS011;57073;45.650;9.612;2022-09-09T05:06:44;3.75;;;0.52;;
69795;SDS011;57073;45.650;9.612;2022-09-09T05:08:44;0.77;;;0.40;;
69795;SDS011;57073;45.650;9.612;2022-09-09T05:10:45;1.10;;;0.40;;
69795;SDS011;57073;45.650;9.612;2022-09-09T05:12:51;0.87;;;0.30;;
69795;SDS011;57073;45.650;9.612;2022-09-09T05:14:53;0.97;;;0.30;;
69795;SDS011;57073;45.650;9.612;2022-09-09T05:16:53;0.53;;;0.10;;
69795;SDS011;57073;45.650;9.612;2022-09-09T05:18:54;1.07;;;0.30;;
69795;SDS011;57073;45.650;9.612;2022-09-09T05:20:58;0.60;;;0.30;;
69795;SDS011;57073;45.650;9.612;2022-09-09T05:22:59;0.98;;;0.20;;
69795;SDS011;57073;45.650;9.612;2022-09-09T05:24:59;1.02;;;0.15;;
69795;SDS011;57073;45.650;9.612;2022-09-09T05:27:00;1.20;;;0.27;;
69795;SDS011;57073;45.650;9.612;2022-09-09T05:29:02;0.47;;;0.10;;
69795;SDS011;57073;45.650;9.612;2022-09-09T05:31:04;0.73;;;0.20;;
69795;SDS011;57073;45.650;9.612;2022-09-09T05:33:11;1.77;;;0.10;;
69795;SDS011;57073;45.650;9.612;2022-09-09T05:35:11;1.90;;;0.27;;
69795;SDS011;57073;45.650;9.612;2022-09-09T05:37:13;2.35;;;0.20;;
69795;SDS011;57073;45.650;9.612;2022-09-09T05:39:13;0.57;;;0.13;;
69795;SDS011;57073;45.650;9.612;2022-09-09T05:41:14;0.70;;;0.20;;
69795;SDS011;57073;45.650;9.612;2022-09-09T05:43:15;1.00;;;0.20;;
69795;SDS011;57073;45.650;9.612;2022-09-09T05:45:16;1.80;;;0.10;;
69795;SDS011;57073;45.650;9.612;2022-09-09T05:47:16;3.67;;;0.40;;
69795;SDS011;57073;45.650;9.612;2022-09-09T05:49:17;2.70;;;0.20;;
69795;SDS011;57073;45.650;9.612;2022-09-09T05:51:18;0.70;;;0.20;;
69795;SDS011;57073;45.650;9.612;2022-09-09T05:53:21;0.95;;;0.15;;
69795;SDS011;57073;45.650;9.612;2022-09-09T05:55:22;0.93;;;0.30;;
69795;SDS011;57073;45.650;9.612;2022-09-09T05:57:22;1.40;;;0.30;;
69795;SDS011;57073;45.650;9.612;2022-09-09T05:59:23;1.20;;;0.20;;
69795;SDS011;57073;45.650;9.612;2022-09-09T06:01:24;3.05;;;0.35;;
69795;SDS011;57073;45.650;9.612;2022-09-09T06:03:26;1.27;;;0.23;;
69795;SDS011;57073;45.650;9.612;2022-09-09T06:05:27;0.65;;;0.30;;
69795;SDS011;57073;45.650;9.612;2022-09-09T06:07:28;1.17;;;0.30;;
69795;SDS011;57073;45.650;9.612;2022-09-09T06:09:28;0.80;;;0.20;;
69795;SDS011;57073;45.650;9.612;2022-09-09T06:11:30;2.23;;;0.30;;
69795;SDS011;57073;45.650;9.612;2022-09-09T06:13:31;0.75;;;0.30;;
69795;SDS011;57073;45.650;9.612;2022-09-09T06:15:32;1.38;;;0.30;;
69795;SDS011;57073;45.650;9.612;2022-09-09T06:17:34;1.75;;;0.30;;
69795;SDS011;57073;45.650;9.612;2022-09-09T06:19:34;0.57;;;0.27;;
69795;SDS011;57073;45.650;9.612;2022-09-09T06:21:35;1.30;;;0.40;;
69795;SDS011;57073;45.650;9.612;2022-09-09T06:23:39;2.17;;;0.40;;
69795;SDS011;57073;45.650;9.612;2022-09-09T06:25:44;0.98;;;0.50;;
69795;SDS011;57073;45.650;9.612;2022-09-09T06:27:48;38.53;;;1.45;;
69795;SDS011;57073;45.650;9.612;2022-09-09T06:29:49;6.45;;;1.10;;
69795;SDS011;57073;45.650;9.612;2022-09-09T06:31:50;4.50;;;0.90;;
69795;SDS011;57073;45.650;9.612;2022-09-09T06:33:51;5.70;;;1.10;;
69795;SDS011;57073;45.650;9.612;2022-09-09T06:35:52;6.53;;;1.25;;
69795;SDS011;57073;45.650;9.612;2022-09-09T06:37:54;5.00;;;1.05;;
69795;SDS011;57073;45.650;9.612;2022-09-09T06:39:54;8.03;;;1.90;;
69795;SDS011;57073;45.650;9.612;2022-09-09T06:41:54;6.73;;;1.50;;
69795;SDS011;57073;45.650;9.612;2022-09-09T06:43:55;9.77;;;1.63;;
69795;SDS011;57073;45.650;9.612;2022-09-09T06:45:59;4.33;;;1.30;;
69795;SDS011;57073;45.650;9.612;2022-09-09T06:48:08;3.80;;;1.30;;
69795;SDS011;57073;45.650;9.612;2022-09-09T06:50:09;8.37;;;1.80;;
69795;SDS011;57073;45.650;9.612;2022-09-09T06:52:10;5.25;;;1.48;;
69795;SDS011;57073;45.650;9.612;2022-09-09T06:54:11;6.20;;;1.37;;
69795;SDS011;57073;45.650;9.612;2022-09-09T06:56:19;5.13;;;1.13;;
69795;SDS011;57073;45.650;9.612;2022-09-09T06:58:23;3.25;;;1.23;;
69795;SDS011;57073;45.650;9.612;2022-09-09T07:00:23;2.67;;;0.90;;
69795;SDS011;57073;45.650;9.612;2022-09-09T07:02:24;3.30;;;1.00;;
69795;SDS011;57073;45.650;9.612;2022-09-09T07:04:24;3.10;;;1.27;;
69795;SDS011;57073;45.650;9.612;2022-09-09T07:06:26;4.23;;;1.70;;
69795;SDS011;57073;45.650;9.612;2022-09-09T07:08:28;2.47;;;0.77;;
69795;SDS011;57073;45.650;9.612;2022-09-09T07:10:28;1.95;;;0.63;;
69795;SDS011;57073;45.650;9.612;2022-09-09T07:12:29;1.03;;;0.80;;
69795;SDS011;57073;45.650;9.612;2022-09-09T07:14:29;1.70;;;0.70;;
69795;SDS011;57073;45.650;9.612;2022-09-09T07:16:30;2.17;;;0.90;;
69795;SDS011;57073;45.650;9.612;2022-09-09T07:18:33;1.40;;;0.80;;
69795;SDS011;57073;45.650;9.612;2022-09-09T07:20:34;2.75;;;0.85;;
69795;SDS011;57073;45.650;9.612;2022-09-09T07:22:35;2.63;;;0.83;;
69795;SDS011;57073;45.650;9.612;2022-09-09T07:24:35;1.77;;;1.07;;
69795;SDS011;57073;45.650;9.612;2022-09-09T07:26:36;3.20;;;1.00;;
69795;SDS011;57073;45.650;9.612;2022-09-09T07:28:37;2.73;;;0.80;;
69795;SDS011;57073;45.650;9.612;2022-09-09T07:30:38;3.13;;;1.08;;
69795;SDS011;57073;45.650;9.612;2022-09-09T07:32:39;3.15;;;0.90;;
69795;SDS011;57073;45.650;9.612;2022-09-09T07:34:39;1.67;;;0.90;;
69795;SDS011;57073;45.650;9.612;2022-09-09T07:36:40;2.47;;;1.10;;
69795;SDS011;57073;45.650;9.612;2022-09-09T07:38:43;3.03;;;0.95;;
69795;SDS011;57073;45.650;9.612;2022-09-09T07:40:45;2.28;;;0.98;;
69795;SDS011;57073;45.650;9.612;2022-09-09T07:42:46;3.37;;;1.03;;
69795;SDS011;57073;45.650;9.612;2022-09-09T07:44:46;2.65;;;0.90;;
69795;SDS011;57073;45.650;9.612;2022-09-09T07:46:46;1.43;;;0.90;;
69795;SDS011;57073;45.650;9.612;2022-09-09T07:48:48;3.10;;;0.70;;
69795;SDS011;57073;45.650;9.612;2022-09-09T07:50:51;2.25;;;0.70;;
69795;SDS011;57073;45.650;9.612;2022-09-09T07:52:51;2.60;;;0.93;;
69795;SDS011;57073;45.650;9.612;2022-09-09T07:54:53;2.60;;;1.00;;
69795;SDS011;57073;45.650;9.612;2022-09-09T07:56:53;2.30;;;0.80;;
69795;SDS011;57073;45.650;9.612;2022-09-09T07:58:54;1.67;;;0.70;;
69795;SDS011;57073;45.650;9.612;2022-09-09T08:00:56;1.45;;;0.50;;
69795;SDS011;57073;45.650;9.612;2022-09-09T08:02:57;1.67;;;0.68;;
69795;SDS011;57073;45.650;9.612;2022-09-09T08:04:58;1.63;;;0.70;;
69795;SDS011;57073;45.650;9.612;2022-09-09T08:06:59;1.90;;;0.90;;
69795;SDS011;57073;45.650;9.612;2022-09-09T08:09:01;2.40;;;0.80;;
69795;SDS011;57073;45.650;9.612;2022-09-09T08:11:05;1.83;;;0.60;;
69795;SDS011;57073;45.650;9.612;2022-09-09T08:13:11;2.00;;;0.88;;
69795;SDS011;57073;45.650;9.612;2022-09-09T08:15:13;2.03;;;0.90;;
69795;SDS011;57073;45.650;9.612;2022-09-09T08:17:14;2.63;;;1.10;;
69795;SDS011;57073;45.650;9.612;2022-09-09T08:19:14;2.83;;;1.00;;
69795;SDS011;57073;45.650;9.612;2022-09-09T08:21:17;3.58;;;0.85;;
69795;SDS011;57073;45.650;9.612;2022-09-09T08:23:20;2.08;;;0.93;;
69795;SDS011;57073;45.650;9.612;2022-09-09T08:25:21;2.00;;;0.80;;
69795;SDS011;57073;45.650;9.612;2022-09-09T08:27:21;1.63;;;0.70;;
69795;SDS011;57073;45.650;9.612;2022-09-09T08:29:22;1.42;;;1.00;;
69795;SDS011;57073;45.650;9.612;2022-09-09T08:31:24;2.00;;;1.00;;
69795;SDS011;57073;45.650;9.612;2022-09-09T08:33:29;3.67;;;0.80;;
69795;SDS011;57073;45.650;9.612;2022-09-09T08:35:29;3.80;;;0.83;;
69795;SDS011;57073;45.650;9.612;2022-09-09T08:37:32;2.75;;;1.00;;
69795;SDS011;57073;45.650;9.612;2022-09-09T08:39:33;1.63;;;1.00;;
69795;SDS011;57073;45.650;9.612;2022-09-09T08:46:32;2.33;;;0.90;;
69795;SDS011;57073;45.650;9.612;2022-09-09T08:51:06;2.80;;;0.90;;
69795;SDS011;57073;45.650;9.612;2022-09-09T08:53:15;2.50;;;0.77;;
69795;SDS011;57073;45.650;9.612;2022-09-09T08:55:31;2.78;;;0.90;;
69795;SDS011;57073;45.650;9.612;2022-09-09T08:57:35;1.95;;;0.88;;
69795;SDS011;57073;45.650;9.612;2022-09-09T08:59:35;1.57;;;0.80;;
69795;SDS011;57073;45.650;9.612;2022-09-09T09:01:45;1.38;;;0.63;;
69795;SDS011;57073;45.650;9.612;2022-09-09T09:10:38;3.35;;;0.98;;
69795;SDS011;57073;45.650;9.612;2022-09-09T09:12:48;1.98;;;0.90;;
69795;SDS011;57073;45.650;9.612;2022-09-09T09:14:49;1.27;;;0.70;;
69795;SDS011;57073;45.650;9.612;2022-09-09T09:16:54;2.60;;;0.90;;
69795;SDS011;57073;45.650;9.612;2022-09-09T09:18:58;1.88;;;1.02;;
69795;SDS011;57073;45.650;9.612;2022-09-09T09:21:08;2.47;;;1.03;;
69795;SDS011;57073;45.650;9.612;2022-09-09T09:23:17;1.67;;;1.05;;
69795;SDS011;57073;45.650;9.612;2022-09-09T09:25:27;1.95;;;1.00;;
69795;SDS011;57073;45.650;9.612;2022-09-09T09:27:35;2.47;;;1.00;;
69795;SDS011;57073;45.650;9.612;2022-09-09T09:29:40;1.23;;;0.82;;
69795;SDS011;57073;45.650;9.612;2022-09-09T09:31:53;2.37;;;1.10;;
69795;SDS011;57073;45.650;9.612;2022-09-09T09:33:56;2.67;;;0.80;;
69795;SDS011;57073;45.650;9.612;2022-09-09T09:35:59;3.15;;;1.20;;
69795;SDS011;57073;45.650;9.612;2022-09-09T09:37:59;1.80;;;1.00;;
69795;SDS011;57073;45.650;9.612;2022-09-09T09:40:07;5.03;;;1.00;;
69795;SDS011;57073;45.650;9.612;2022-09-09T09:42:13;1.88;;;0.77;;
69795;SDS011;57073;45.650;9.612;2022-09-09T09:44:22;1.17;;;0.80;;
69795;SDS011;57073;45.650;9.612;2022-09-09T09:46:30;1.00;;;0.85;;
69795;SDS011;57073;45.650;9.612;2022-09-09T09:48:32;1.65;;;0.70;;
69795;SDS011;57073;45.650;9.612;2022-09-09T09:50:33;1.37;;;0.90;;
69795;SDS011;57073;45.650;9.612;2022-09-09T09:52:33;2.45;;;1.10;;
69795;SDS011;57073;45.650;9.612;2022-09-09T09:54:41;1.10;;;0.60;;
69795;SDS011;57073;45.650;9.612;2022-09-09T09:56:42;1.55;;;0.90;;
69795;SDS011;57073;45.650;9.612;2022-09-09T10:00:48;1.60;;;0.80;;
69795;SDS011;57073;45.650;9.612;2022-09-09T10:02:52;0.90;;;0.50;;
69795;SDS011;57073;45.650;9.612;2022-09-09T10:05:06;2.00;;;0.60;;
69795;SDS011;57073;45.650;9.612;2022-09-09T10:07:18;0.82;;;0.60;;
69795;SDS011;57073;45.650;9.612;2022-09-09T10:11:52;0.70;;;0.50;;
69795;SDS011;57073;45.650;9.612;2022-09-09T10:18:34;2.08;;;0.70;;
69795;SDS011;57073;45.650;9.612;2022-09-09T10:27:58;1.00;;;0.50;;
69795;SDS011;57073;45.650;9.612;2022-09-09T10:36:50;2.80;;;0.70;;
69795;SDS011;57073;45.650;9.612;2022-09-09T10:43:07;1.20;;;0.50;;
69795;SDS011;57073;45.650;9.612;2022-09-09T10:57:56;1.25;;;0.50;;
69795;SDS011;57073;45.650;9.612;2022-09-09T10:59:42;1.10;;;0.60;;
69795;SDS011;57073;45.650;9.612;2022-09-09T11:01:49;1.87;;;0.50;;
69795;SDS011;57073;45.650;9.612;2022-09-09T11:04:01;0.85;;;0.50;;
69795;SDS011;57073;45.650;9.612;2022-09-09T11:06:17;1.85;;;0.57;;
69795;SDS011;57073;45.650;9.612;2022-09-09T11:08:21;0.70;;;0.50;;
69795;SDS011;57073;45.650;9.612;2022-09-09T11:12:45;1.00;;;0.60;;
69795;SDS011;57073;45.650;9.612;2022-09-09T11:14:54;0.93;;;0.50;;
69795;SDS011;57073;45.650;9.612;2022-09-09T11:17:38;1.83;;;0.90;;
69795;SDS011;57073;45.650;9.612;2022-09-09T11:19:46;2.30;;;0.80;;
69795;SDS011;57073;45.650;9.612;2022-09-09T11:21:48;1.53;;;0.47;;
69795;SDS011;57073;45.650;9.612;2022-09-09T11:24:10;1.17;;;0.60;;
69795;SDS011;57073;45.650;9.612;2022-09-09T11:26:28;1.08;;;0.70;;
69795;SDS011;57073;45.650;9.612;2022-09-09T11:38:02;1.88;;;0.70;;
69795;SDS011;57073;45.650;9.612;2022-09-09T11:42:20;1.60;;;0.52;;
69795;SDS011;57073;45.650;9.612;2022-09-09T11:44:26;0.80;;;0.50;;
69795;SDS011;57073;45.650;9.612;2022-09-09T11:46:34;1.17;;;0.50;;
69795;SDS011;57073;45.650;9.612;2022-09-09T11:48:42;2.65;;;0.70;;
69795;SDS011;57073;45.650;9.612;2022-09-09T11:50:45;1.80;;;0.60;;
69795;SDS011;57073;45.650;9.612;2022-09-09T11:52:46;2.63;;;0.60;;
69795;SDS011;57073;45.650;9.612;2022-09-09T11:54:48;3.70;;;0.70;;
69795;SDS011;57073;45.650;9.612;2022-09-09T11:56:50;1.55;;;0.70;;
69795;SDS011;57073;45.650;9.612;2022-09-09T11:59:00;0.93;;;0.40;;
69795;SDS011;57073;45.650;9.612;2022-09-09T12:01:12;1.67;;;0.50;;
69795;SDS011;57073;45.650;9.612;2022-09-09T12:03:46;1.13;;;0.55;;
69795;SDS011;57073;45.650;9.612;2022-09-09T12:05:50;2.00;;;0.82;;
69795;SDS011;57073;45.650;9.612;2022-09-09T12:07:52;2.43;;;0.57;;
69795;SDS011;57073;45.650;9.612;2022-09-09T12:09:58;2.17;;;0.60;;
69795;SDS011;57073;45.650;9.612;2022-09-09T12:14:19;3.00;;;0.65;;
69795;SDS011;57073;45.650;9.612;2022-09-09T12:16:41;1.67;;;0.60;;
69795;SDS011;57073;45.650;9.612;2022-09-09T12:18:42;1.30;;;0.60;;
69795;SDS011;57073;45.650;9.612;2022-09-09T12:20:52;1.88;;;0.60;;
69795;SDS011;57073;45.650;9.612;2022-09-09T12:23:00;1.10;;;0.60;;
69795;SDS011;57073;45.650;9.612;2022-09-09T12:26:05;2.03;;;0.52;;
69795;SDS011;57073;45.650;9.612;2022-09-09T12:30:17;2.00;;;0.77;;
69795;SDS011;57073;45.650;9.612;2022-09-09T12:32:22;1.92;;;0.90;;
69795;SDS011;57073;45.650;9.612;2022-09-09T12:36:51;2.13;;;0.90;;
69795;SDS011;57073;45.650;9.612;2022-09-09T12:38:58;1.25;;;0.70;;
69795;SDS011;57073;45.650;9.612;2022-09-09T12:41:22;1.85;;;0.70;;
69795;SDS011;57073;45.650;9.612;2022-09-09T12:43:25;1.88;;;0.82;;
69795;SDS011;57073;45.650;9.612;2022-09-09T12:45:28;2.85;;;0.80;;
69795;SDS011;57073;45.650;9.612;2022-09-09T12:49:47;2.25;;;0.90;;
69795;SDS011;57073;45.650;9.612;2022-09-09T12:51:49;2.60;;;1.10;;
69795;SDS011;57073;45.650;9.612;2022-09-09T12:53:50;1.87;;;0.90;;
69795;SDS011;57073;45.650;9.612;2022-09-09T12:57:57;1.50;;;0.77;;
69795;SDS011;57073;45.650;9.612;2022-09-09T13:00:06;0.95;;;0.63;;
69795;SDS011;57073;45.650;9.612;2022-09-09T13:04:22;3.25;;;0.80;;
69795;SDS011;57073;45.650;9.612;2022-09-09T13:06:24;2.83;;;0.90;;
69795;SDS011;57073;45.650;9.612;2022-09-09T13:08:26;3.00;;;0.90;;
69795;SDS011;57073;45.650;9.612;2022-09-09T13:10:27;2.78;;;0.90;;
69795;SDS011;57073;45.650;9.612;2022-09-09T13:12:32;3.33;;;0.82;;
69795;SDS011;57073;45.650;9.612;2022-09-09T13:14:33;2.03;;;1.20;;
69795;SDS011;57073;45.650;9.612;2022-09-09T13:16:37;2.80;;;1.10;;
69795;SDS011;57073;45.650;9.612;2022-09-09T13:18:40;2.83;;;0.90;;
69795;SDS011;57073;45.650;9.612;2022-09-09T13:20:45;2.77;;;1.00;;
69795;SDS011;57073;45.650;9.612;2022-09-09T13:22:47;2.28;;;0.90;;
69795;SDS011;57073;45.650;9.612;2022-09-09T13:25:00;2.78;;;0.98;;
69795;SDS011;57073;45.650;9.612;2022-09-09T13:27:05;1.67;;;0.90;;
69795;SDS011;57073;45.650;9.612;2022-09-09T13:29:24;1.80;;;1.20;;
69795;SDS011;57073;45.650;9.612;2022-09-09T13:31:29;2.00;;;1.10;;
69795;SDS011;57073;45.650;9.612;2022-09-09T13:33:35;3.25;;;1.25;;
69795;SDS011;57073;45.650;9.612;2022-09-09T13:38:07;1.75;;;1.20;;
69795;SDS011;57073;45.650;9.612;2022-09-09T13:40:16;2.60;;;1.20;;
69795;SDS011;57073;45.650;9.612;2022-09-09T13:42:29;4.60;;;1.13;;
69795;SDS011;57073;45.650;9.612;2022-09-09T13:44:35;3.33;;;1.00;;
69795;SDS011;57073;45.650;9.612;2022-09-09T13:46:39;2.65;;;1.30;;
69795;SDS011;57073;45.650;9.612;2022-09-09T13:48:41;1.80;;;1.10;;
69795;SDS011;57073;45.650;9.612;2022-09-09T13:50:41;7.57;;;0.97;;
69795;SDS011;57073;45.650;9.612;2022-09-09T13:52:42;2.20;;;0.90;;
69795;SDS011;57073;45.650;9.612;2022-09-09T13:54:42;3.03;;;1.10;;
69795;SDS011;57073;45.650;9.612;2022-09-09T13:56:47;1.52;;;1.00;;
69795;SDS011;57073;45.650;9.612;2022-09-09T13:58:49;3.47;;;1.15;;
69795;SDS011;57073;45.650;9.612;2022-09-09T14:00:49;1.97;;;1.10;;
69795;SDS011;57073;45.650;9.612;2022-09-09T14:02:50;3.73;;;1.00;;
69795;SDS011;57073;45.650;9.612;2022-09-09T14:04:51;2.78;;;1.40;;
69795;SDS011;57073;45.650;9.612;2022-09-09T14:06:54;2.47;;;1.20;;
69795;SDS011;57073;45.650;9.612;2022-09-09T14:08:55;6.20;;;1.30;;
69795;SDS011;57073;45.650;9.612;2022-09-09T14:10:56;1.43;;;1.20;;
69795;SDS011;57073;45.650;9.612;2022-09-09T14:12:59;2.58;;;1.00;;
69795;SDS011;57073;45.650;9.612;2022-09-09T14:14:59;3.00;;;1.10;;
69795;SDS011;57073;45.650;9.612;2022-09-09T14:17:00;2.00;;;1.27;;
69795;SDS011;57073;45.650;9.612;2022-09-09T14:19:00;2.30;;;1.17;;
69795;SDS011;57073;45.650;9.612;2022-09-09T14:21:01;2.88;;;1.50;;
69795;SDS011;57073;45.650;9.612;2022-09-09T14:23:02;1.50;;;1.10;;
69795;SDS011;57073;45.650;9.612;2022-09-09T14:25:03;2.07;;;1.20;;
69795;SDS011;57073;45.650;9.612;2022-09-09T14:27:04;3.67;;;1.30;;
69795;SDS011;57073;45.650;9.612;2022-09-09T14:29:04;2.90;;;1.60;;
69795;SDS011;57073;45.650;9.612;2022-09-09T14:31:04;3.07;;;1.33;;
69795;SDS011;57073;45.650;9.612;2022-09-09T14:33:05;4.45;;;1.30;;
69795;SDS011;57073;45.650;9.612;2022-09-09T14:35:06;4.27;;;1.50;;
69795;SDS011;57073;45.650;9.612;2022-09-09T14:37:07;3.90;;;1.45;;
69795;SDS011;57073;45.650;9.612;2022-09-09T14:39:08;3.80;;;1.40;;